createdAt,value
2018-04-29T00:01:17.854Z,15.79
2018-04-29T00:03:46.986Z,15.69
2018-04-29T00:06:16.060Z,15.59
2018-04-29T00:08:44.803Z,15.51
2018-04-29T00:11:13.147Z,15.44
2018-04-29T00:13:41.899Z,15.33
2018-04-29T00:16:10.245Z,15.20
2018-04-29T00:18:39.019Z,15.13
2018-04-29T00:21:07.339Z,15.17
2018-04-29T00:23:35.660Z,15.14
2018-04-29T00:26:04.438Z,15.01
2018-04-29T00:28:32.790Z,14.88
2018-04-29T00:31:02.498Z,14.77
2018-04-29T00:33:31.637Z,14.73
2018-04-29T00:35:59.982Z,14.67
2018-04-29T00:38:29.126Z,14.56
2018-04-29T00:40:57.862Z,14.43
2018-04-29T00:43:27.724Z,14.42
2018-04-29T00:45:57.215Z,14.49
2018-04-29T00:48:25.586Z,14.52
2018-04-29T00:50:53.986Z,14.48
2018-04-29T00:53:22.683Z,14.56
2018-04-29T00:55:51.441Z,14.40
2018-04-29T00:58:20.168Z,14.39
2018-04-29T01:00:50.040Z,14.43
2018-04-29T01:03:18.390Z,14.34
2018-04-29T01:05:47.506Z,14.27
2018-04-29T01:08:16.284Z,14.16
2018-04-29T01:10:44.622Z,14.08
2018-04-29T01:13:12.967Z,13.96
2018-04-29T01:15:42.099Z,13.84
2018-04-29T01:18:10.470Z,13.81
2018-04-29T01:20:38.845Z,13.99
2018-04-29T01:23:08.027Z,14.00
2018-04-29T01:25:36.765Z,13.86
2018-04-29T01:28:05.863Z,13.67
2018-04-29T01:30:34.228Z,13.60
2018-04-29T01:33:03.347Z,13.66
2018-04-29T01:35:31.725Z,13.55
2018-04-29T01:38:00.042Z,13.34
2018-04-29T01:40:28.483Z,13.16
2018-04-29T01:42:56.836Z,13.03
2018-04-29T01:45:25.628Z,12.94
2018-04-29T01:47:54.718Z,12.86
2018-04-29T01:50:23.833Z,12.80
2018-04-29T01:52:52.216Z,12.65
2018-04-29T01:55:20.558Z,12.54
2018-04-29T01:57:48.890Z,12.46
2018-04-29T02:00:17.327Z,12.37
2018-04-29T02:02:45.620Z,12.32
2018-04-29T02:05:14.375Z,12.28
2018-04-29T02:07:42.710Z,12.25
2018-04-29T02:10:11.091Z,12.24
2018-04-29T02:12:39.830Z,12.25
2018-04-29T02:15:08.936Z,12.24
2018-04-29T02:17:38.066Z,12.23
2018-04-29T02:20:06.408Z,12.24
2018-04-29T02:22:36.272Z,12.23
2018-04-29T02:25:04.632Z,12.23
2018-04-29T02:27:32.991Z,12.18
2018-04-29T02:30:01.354Z,12.12
2018-04-29T02:32:30.870Z,12.05
2018-04-29T02:34:59.238Z,12.01
2018-04-29T02:37:28.631Z,12.06
2018-04-29T02:39:57.769Z,12.17
2018-04-29T02:42:26.103Z,12.10
2018-04-29T02:44:55.845Z,12.24
2018-04-29T02:47:25.377Z,12.28
2018-04-29T02:49:55.283Z,12.28
2018-04-29T02:52:23.656Z,12.17
2018-04-29T02:54:52.116Z,12.07
2018-04-29T02:57:20.893Z,11.94
2018-04-29T02:59:49.989Z,11.82
2018-04-29T03:02:18.329Z,11.82
2018-04-29T03:04:46.766Z,11.93
2018-04-29T03:07:16.455Z,11.95
2018-04-29T03:09:46.415Z,11.98
2018-04-29T03:12:14.772Z,11.98
2018-04-29T03:14:45.217Z,11.95
2018-04-29T03:17:14.190Z,11.88
2018-04-29T03:19:42.567Z,11.82
2018-04-29T03:22:10.988Z,11.72
2018-04-29T03:24:40.374Z,11.60
2018-04-29T03:27:10.170Z,11.45
2018-04-29T03:29:39.872Z,11.36
2018-04-29T03:32:10.317Z,11.29
2018-04-29T03:34:39.446Z,11.23
2018-04-29T03:37:08.590Z,11.19
2018-04-29T03:39:36.928Z,11.17
2018-04-29T03:42:06.078Z,11.19
2018-04-29T03:44:34.624Z,11.23
2018-04-29T03:47:03.813Z,11.27
2018-04-29T03:49:32.633Z,11.26
2018-04-29T03:52:02.841Z,11.25
2018-04-29T03:54:32.157Z,11.26
2018-04-29T03:57:18.432Z,11.31
2018-04-29T04:00:04.649Z,11.37
2018-04-29T04:02:51.537Z,11.47
2018-04-29T04:05:20.504Z,11.45
2018-04-29T04:07:50.229Z,11.50
2018-04-29T04:10:20.246Z,11.56
2018-04-29T04:12:48.654Z,11.66
2018-04-29T04:15:16.965Z,11.86
2018-04-29T04:17:46.090Z,12.01
2018-04-29T04:20:15.201Z,12.09
2018-04-29T04:22:43.972Z,12.18
2018-04-29T04:25:13.157Z,12.27
2018-04-29T04:27:42.862Z,12.40
2018-04-29T04:30:12.933Z,12.44
2018-04-29T04:32:42.681Z,12.43
2018-04-29T04:35:12.094Z,12.45
2018-04-29T04:37:40.458Z,12.47
2018-04-29T04:40:10.226Z,12.55
2018-04-29T04:42:38.631Z,12.55
2018-04-29T04:45:08.088Z,12.55
2018-04-29T04:47:37.235Z,12.57
2018-04-29T04:50:07.119Z,12.59
2018-04-29T04:52:35.788Z,12.61
2018-04-29T04:55:04.940Z,12.62
2018-04-29T04:57:33.457Z,12.68
2018-04-29T05:00:04.303Z,12.82
2018-04-29T05:02:34.213Z,12.91
2018-04-29T05:05:04.543Z,12.98
2018-04-29T05:07:33.512Z,13.09
2018-04-29T05:10:02.331Z,13.22
2018-04-29T05:12:31.320Z,13.32
2018-04-29T05:15:00.474Z,13.43
2018-04-29T05:17:28.892Z,13.55
2018-04-29T05:19:57.249Z,13.66
2018-04-29T05:22:25.613Z,13.78
2018-04-29T05:24:54.691Z,13.88
2018-04-29T05:27:23.060Z,13.97
2018-04-29T05:29:51.386Z,14.04
2018-04-29T05:32:19.721Z,14.09
2018-04-29T05:34:48.085Z,14.12
2018-04-29T05:37:16.813Z,14.18
2018-04-29T05:39:46.691Z,14.24
2018-04-29T05:42:15.572Z,14.30
2018-04-29T05:44:44.711Z,14.41
2018-04-29T05:47:13.049Z,14.50
2018-04-29T05:49:42.175Z,14.61
2018-04-29T05:52:10.491Z,14.66
2018-04-29T05:54:39.604Z,14.81
2018-04-29T05:57:08.940Z,14.86
2018-04-29T05:59:37.706Z,14.93
2018-04-29T06:02:06.071Z,14.99
2018-04-29T06:04:34.410Z,15.05
2018-04-29T06:07:03.505Z,15.12
2018-04-29T06:09:32.617Z,15.20
2018-04-29T06:12:01.336Z,15.26
2018-04-29T06:14:29.717Z,15.35
2018-04-29T06:16:58.020Z,15.43
2018-04-29T06:19:27.515Z,15.52
2018-04-29T06:21:56.652Z,15.63
2018-04-29T06:24:25.813Z,15.74
2018-04-29T06:26:54.534Z,15.84
2018-04-29T06:29:22.884Z,15.92
2018-04-29T06:31:51.994Z,16.01
2018-04-29T06:34:20.299Z,16.10
2018-04-29T06:36:48.809Z,16.20
2018-04-29T06:39:17.999Z,16.27
2018-04-29T06:41:46.453Z,16.35
2018-04-29T06:44:14.786Z,16.44
2018-04-29T06:46:43.365Z,16.57
2018-04-29T06:49:13.017Z,16.79
2018-04-29T06:51:42.106Z,16.97
2018-04-29T06:54:11.279Z,17.06
2018-04-29T06:56:39.669Z,17.19
2018-04-29T06:59:09.829Z,17.39
2018-04-29T07:01:38.597Z,17.53
2018-04-29T07:04:06.938Z,17.62
2018-04-29T07:06:37.631Z,17.73
2018-04-29T07:09:07.604Z,17.88
2018-04-29T07:11:37.411Z,17.95
2018-04-29T07:14:05.782Z,17.90
2018-04-29T07:16:34.125Z,17.95
2018-04-29T07:19:02.913Z,18.01
2018-04-29T07:21:31.252Z,18.06
2018-04-29T07:24:00.344Z,18.15
2018-04-29T07:26:29.480Z,18.26
2018-04-29T07:28:57.861Z,18.43
2018-04-29T07:31:26.235Z,18.66
2018-04-29T07:33:55.329Z,18.77
2018-04-29T07:36:23.625Z,18.85
2018-04-29T07:38:51.986Z,18.93
2018-04-29T07:41:20.312Z,19.00
2018-04-29T07:43:49.414Z,19.10
2018-04-29T07:46:17.780Z,19.20
2018-04-29T07:48:47.756Z,19.32
2018-04-29T07:51:16.187Z,19.39
2018-04-29T07:53:45.325Z,19.54
2018-04-29T07:56:14.446Z,19.60
2018-04-29T07:58:42.810Z,19.67
2018-04-29T08:01:11.885Z,19.72
2018-04-29T08:03:41.154Z,20.00
2018-04-29T08:06:10.271Z,20.14
2018-04-29T08:08:38.649Z,20.13
2018-04-29T08:11:07.007Z,20.23
2018-04-29T08:13:36.221Z,20.21
2018-04-29T08:16:04.615Z,20.22
2018-04-29T08:18:32.951Z,20.26
2018-04-29T08:21:02.070Z,20.27
2018-04-29T08:23:30.470Z,20.36
2018-04-29T08:25:58.829Z,20.31
2018-04-29T08:28:27.193Z,20.35
2018-04-29T08:30:56.407Z,20.38
2018-04-29T08:33:24.728Z,20.40
2018-04-29T08:35:53.093Z,20.41
2018-04-29T08:38:21.447Z,20.50
2018-04-29T08:40:49.766Z,20.62
2018-04-29T08:43:18.940Z,20.74
2018-04-29T08:45:47.299Z,20.84
2018-04-29T08:48:15.754Z,20.81
2018-04-29T08:50:44.093Z,20.79
2018-04-29T08:53:12.614Z,20.85
2018-04-29T08:55:41.111Z,20.97
2018-04-29T08:58:09.520Z,21.19
2018-04-29T09:00:37.922Z,21.21
2018-04-29T09:03:06.238Z,21.34
2018-04-29T09:05:34.719Z,21.30
2018-04-29T09:08:03.099Z,21.31
2018-04-29T09:10:33.358Z,21.33
2018-04-29T09:13:03.044Z,21.42
2018-04-29T09:15:32.121Z,21.45
2018-04-29T09:18:01.204Z,21.56
2018-04-29T09:20:30.593Z,21.74
2018-04-29T09:22:58.949Z,21.82
2018-04-29T09:25:27.269Z,21.83
2018-04-29T09:27:55.618Z,22.02
2018-04-29T09:30:23.951Z,22.15
2018-04-29T09:32:52.334Z,21.93
2018-04-29T09:35:20.653Z,22.22
2018-04-29T09:37:49.569Z,22.66
2018-04-29T09:40:17.954Z,22.94
2018-04-29T09:42:46.331Z,22.72
2018-04-29T09:45:15.018Z,22.58
2018-04-29T09:47:43.337Z,22.54
2018-04-29T09:50:11.682Z,22.78
2018-04-29T09:52:40.152Z,23.15
2018-04-29T09:55:08.552Z,23.47
2018-04-29T09:57:38.192Z,23.07
2018-04-29T10:00:06.575Z,22.97
2018-04-29T10:02:35.246Z,23.20
2018-04-29T10:05:03.593Z,23.51
2018-04-29T10:07:31.930Z,23.68
2018-04-29T10:10:01.081Z,23.79
2018-04-29T10:12:29.462Z,24.03
2018-04-29T10:14:57.827Z,24.23
2018-04-29T10:17:26.226Z,24.32
2018-04-29T10:19:54.579Z,24.54
2018-04-29T10:22:22.946Z,24.62
2018-04-29T10:24:51.282Z,24.45
2018-04-29T10:27:19.658Z,24.49
2018-04-29T10:29:47.985Z,24.80
2018-04-29T10:32:17.225Z,24.49
2018-04-29T10:34:45.599Z,23.81
2018-04-29T10:37:13.940Z,23.63
2018-04-29T10:39:42.266Z,23.31
2018-04-29T10:42:10.632Z,23.50
2018-04-29T10:44:38.952Z,23.71
2018-04-29T10:47:07.329Z,23.22
2018-04-29T10:49:35.665Z,23.38
2018-04-29T10:52:04.138Z,23.40
2018-04-29T10:54:32.742Z,23.42
2018-04-29T10:57:01.068Z,23.43
2018-04-29T10:59:29.458Z,23.45
2018-04-29T11:01:57.861Z,23.54
2018-04-29T11:04:26.226Z,23.78
2018-04-29T11:06:54.586Z,23.68
2018-04-29T11:09:22.924Z,23.84
2018-04-29T11:11:52.197Z,23.90
2018-04-29T11:14:21.551Z,23.92
2018-04-29T11:16:51.658Z,23.95
2018-04-29T11:19:20.638Z,23.81
2018-04-29T11:21:49.792Z,23.82
2018-04-29T11:24:18.153Z,23.86
2018-04-29T11:26:47.036Z,23.76
2018-04-29T11:29:15.996Z,23.84
2018-04-29T11:31:44.388Z,24.04
2018-04-29T11:34:13.705Z,24.29
2018-04-29T11:36:43.263Z,24.63
2018-04-29T11:39:12.468Z,24.90
2018-04-29T11:41:46.112Z,24.94
2018-04-29T11:44:14.585Z,24.96
2018-04-29T11:46:42.907Z,24.98
2018-04-29T11:49:11.230Z,24.78
2018-04-29T11:51:40.742Z,24.89
2018-04-29T11:54:09.186Z,25.22
2018-04-29T11:56:38.337Z,25.50
2018-04-29T11:59:07.495Z,25.72
2018-04-29T12:01:35.955Z,25.94
2018-04-29T12:04:06.831Z,26.16
2018-04-29T12:06:35.387Z,26.37
2018-04-29T12:09:08.618Z,26.80
2018-04-29T12:11:38.193Z,27.09
2018-04-29T12:14:08.509Z,27.34
2018-04-29T12:16:37.628Z,27.27
2018-04-29T12:19:06.557Z,27.03
2018-04-29T12:21:34.890Z,26.36
2018-04-29T12:24:03.291Z,25.60
2018-04-29T12:26:31.656Z,25.54
2018-04-29T12:29:00.045Z,25.33
2018-04-29T12:31:28.402Z,25.05
2018-04-29T12:33:56.768Z,25.14
2018-04-29T12:36:25.888Z,25.17
2018-04-29T12:38:54.593Z,24.87
2018-04-29T12:41:23.058Z,24.93
2018-04-29T12:43:51.426Z,24.92
2018-04-29T12:46:19.757Z,24.73
2018-04-29T12:48:48.512Z,24.72
2018-04-29T12:51:16.840Z,24.65
2018-04-29T12:53:46.402Z,24.81
2018-04-29T12:56:14.775Z,24.89
2018-04-29T12:58:43.093Z,24.80
2018-04-29T13:01:11.425Z,24.67
2018-04-29T13:03:40.880Z,24.73
2018-04-29T13:06:09.974Z,24.80
2018-04-29T13:08:38.368Z,24.85
2018-04-29T13:11:07.509Z,24.95
2018-04-29T13:13:35.847Z,24.84
2018-04-29T13:16:04.208Z,24.95
2018-04-29T13:18:32.550Z,24.95
2018-04-29T13:21:00.888Z,24.99
2018-04-29T13:23:29.417Z,25.01
2018-04-29T13:25:58.601Z,24.92
2018-04-29T13:28:26.914Z,24.96
2018-04-29T13:30:56.038Z,24.86
2018-04-29T13:33:24.348Z,24.96
2018-04-29T13:35:52.700Z,25.06
2018-04-29T13:38:21.017Z,25.11
2018-04-29T13:40:49.362Z,25.16
2018-04-29T13:43:17.798Z,25.18
2018-04-29T13:45:46.941Z,25.28
2018-04-29T13:48:15.290Z,25.35
2018-04-29T13:50:43.698Z,25.19
2018-04-29T13:53:12.034Z,25.21
2018-04-29T13:55:41.166Z,25.23
2018-04-29T13:58:09.516Z,25.36
2018-04-29T14:00:38.641Z,25.25
2018-04-29T14:03:07.020Z,25.33
2018-04-29T14:05:35.393Z,25.34
2018-04-29T14:08:03.726Z,25.42
2018-04-29T14:10:32.862Z,25.36
2018-04-29T14:13:01.306Z,25.40
2018-04-29T14:15:29.563Z,25.45
2018-04-29T14:17:57.941Z,25.49
2018-04-29T14:20:26.277Z,25.48
2018-04-29T14:22:54.613Z,25.51
2018-04-29T14:25:23.697Z,25.55
2018-04-29T14:27:52.070Z,25.60
2018-04-29T14:30:21.314Z,25.67
2018-04-29T14:32:49.665Z,25.70
2018-04-29T14:35:18.003Z,25.71
2018-04-29T14:37:46.363Z,25.71
2018-04-29T14:40:14.698Z,25.72
2018-04-29T14:42:43.942Z,25.71
2018-04-29T14:45:12.320Z,25.63
2018-04-29T14:47:40.663Z,25.59
2018-04-29T14:50:10.513Z,25.65
2018-04-29T14:52:38.891Z,25.70
2018-04-29T14:55:07.220Z,25.73
2018-04-29T14:57:36.332Z,25.79
2018-04-29T15:00:04.676Z,25.71
2018-04-29T15:02:33.049Z,25.74
2018-04-29T15:05:02.343Z,25.65
2018-04-29T15:07:31.116Z,25.84
2018-04-29T15:09:59.448Z,25.89
2018-04-29T15:12:27.855Z,25.69
2018-04-29T15:14:56.212Z,25.66
2018-04-29T15:17:24.530Z,25.83
2018-04-29T15:19:52.874Z,25.90
2018-04-29T15:22:21.263Z,25.79
2018-04-29T15:24:49.668Z,25.67
2018-04-29T15:27:17.986Z,25.71
2018-04-29T15:29:47.097Z,25.82
2018-04-29T15:32:15.446Z,25.81
2018-04-29T15:34:43.785Z,25.88
2018-04-29T15:37:12.138Z,25.90
2018-04-29T15:39:40.449Z,25.76
2018-04-29T15:42:08.790Z,25.62
2018-04-29T15:44:37.169Z,25.73
2018-04-29T15:47:05.559Z,25.85
2018-04-29T15:49:33.874Z,25.85
2018-04-29T15:52:02.225Z,25.87
2018-04-29T15:54:30.595Z,25.84
2018-04-29T15:56:58.935Z,25.78
2018-04-29T15:59:28.043Z,25.89
2018-04-29T16:01:56.409Z,25.93
2018-04-29T16:04:25.499Z,25.88
2018-04-29T16:06:54.606Z,25.75
2018-04-29T16:09:22.919Z,25.84
2018-04-29T16:11:52.043Z,25.74
2018-04-29T16:14:20.393Z,25.75
2018-04-29T16:16:48.785Z,25.80
2018-04-29T16:19:17.144Z,25.80
2018-04-29T16:21:45.499Z,25.76
2018-04-29T16:24:13.838Z,25.76
2018-04-29T16:26:42.220Z,25.69
2018-04-29T16:29:10.538Z,25.74
2018-04-29T16:31:38.885Z,25.74
2018-04-29T16:34:08.002Z,25.69
2018-04-29T16:36:36.324Z,25.61
2018-04-29T16:39:04.681Z,25.57
2018-04-29T16:41:32.994Z,25.58
2018-04-29T16:44:01.329Z,25.62
2018-04-29T16:46:29.687Z,25.59
2018-04-29T16:48:58.057Z,25.61
2018-04-29T16:51:26.418Z,25.55
2018-04-29T16:53:55.573Z,25.60
2018-04-29T16:56:23.914Z,25.50
2018-04-29T16:58:52.267Z,25.50
2018-04-29T17:01:20.673Z,25.54
2018-04-29T17:03:49.765Z,25.55
2018-04-29T17:06:18.117Z,25.54
2018-04-29T17:08:46.441Z,25.44
2018-04-29T17:11:14.757Z,25.50
2018-04-29T17:13:43.117Z,25.52
2018-04-29T17:16:11.445Z,25.40
2018-04-29T17:18:40.533Z,25.27
2018-04-29T17:21:09.704Z,25.11
2018-04-29T17:23:38.127Z,25.10
2018-04-29T17:26:07.025Z,25.08
2018-04-29T17:28:35.651Z,25.03
2018-04-29T17:31:03.968Z,24.98
2018-04-29T17:33:32.327Z,24.85
2018-04-29T17:36:01.422Z,24.75
2018-04-29T17:38:30.541Z,24.64
2018-04-29T17:40:58.867Z,24.48
2018-04-29T17:43:30.982Z,24.33
2018-04-29T17:45:59.323Z,24.21
2018-04-29T17:48:28.163Z,24.15
2018-04-29T17:50:56.727Z,24.03
2018-04-29T17:53:25.255Z,23.87
2018-04-29T17:55:53.610Z,23.71
2018-04-29T17:58:22.226Z,23.62
2018-04-29T18:00:50.578Z,23.55
2018-04-29T18:03:18.959Z,23.41
2018-04-29T18:05:47.299Z,23.27
2018-04-29T18:08:17.293Z,23.13
2018-04-29T18:10:46.520Z,23.10
2018-04-29T18:13:15.625Z,22.94
2018-04-29T18:15:43.971Z,22.78
2018-04-29T18:18:12.305Z,22.76
2018-04-29T18:20:40.660Z,22.53
2018-04-29T18:23:09.017Z,22.32
2018-04-29T18:25:38.125Z,22.42
2018-04-29T18:28:06.454Z,22.40
2018-04-29T18:30:34.834Z,22.20
2018-04-29T18:33:03.178Z,22.10
2018-04-29T18:35:32.247Z,21.98
2018-04-29T18:38:03.051Z,21.92
2018-04-29T18:40:33.823Z,21.81
2018-04-29T18:43:02.734Z,21.53
2018-04-29T18:45:31.076Z,21.72
2018-04-29T18:48:01.138Z,21.58
2018-04-29T18:50:29.937Z,21.53
2018-04-29T18:52:58.323Z,21.17
2018-04-29T18:55:47.684Z,21.42
2018-04-29T18:58:18.878Z,21.57
2018-04-29T19:00:47.650Z,21.51
2018-04-29T19:03:17.391Z,21.45
2018-04-29T19:05:48.378Z,21.25
2018-04-29T19:08:16.798Z,21.08
2018-04-29T19:10:47.517Z,21.24
2018-04-29T19:13:17.245Z,21.21
2018-04-29T19:15:45.874Z,21.32
2018-04-29T19:18:14.218Z,20.99
2018-04-29T19:20:43.007Z,21.00
2018-04-29T19:23:11.456Z,20.84
2018-04-29T19:25:40.564Z,20.84
2018-04-29T19:28:09.715Z,20.80
2018-04-29T19:30:38.084Z,20.85
2018-04-29T19:33:06.440Z,20.83
2018-04-29T19:35:34.850Z,20.58
2018-04-29T19:38:03.216Z,20.44
2018-04-29T19:40:31.558Z,20.63
2018-04-29T19:42:59.938Z,20.69
2018-04-29T19:45:28.656Z,20.74
2018-04-29T19:47:56.998Z,20.51
2018-04-29T19:50:25.384Z,20.38
2018-04-29T19:52:53.718Z,20.60
2018-04-29T19:55:22.138Z,20.51
2018-04-29T19:57:50.511Z,20.32
2018-04-29T20:00:18.840Z,20.22
2018-04-29T20:02:47.279Z,20.26
2018-04-29T20:05:16.571Z,20.26
2018-04-29T20:07:44.943Z,20.38
2018-04-29T20:10:13.298Z,20.43
2018-04-29T20:12:42.278Z,20.48
2018-04-29T20:15:10.697Z,20.39
2018-04-29T20:17:39.086Z,20.28
2018-04-29T20:20:07.436Z,20.15
2018-04-29T20:22:36.539Z,20.35
2018-04-29T20:25:05.653Z,20.33
2018-04-29T20:27:33.960Z,20.04
2018-04-29T20:30:02.498Z,20.08
2018-04-29T20:32:56.191Z,19.98
2018-04-29T20:35:24.532Z,19.85
2018-04-29T20:37:54.109Z,20.05
2018-04-29T20:40:22.433Z,19.98
2018-04-29T20:42:50.815Z,19.81
2018-04-29T20:45:19.165Z,19.94
2018-04-29T20:47:48.282Z,19.84
2018-04-29T20:50:17.404Z,19.70
2018-04-29T20:52:46.141Z,19.46
2018-04-29T20:55:14.573Z,19.47
2018-04-29T20:57:43.710Z,19.37
2018-04-29T21:00:12.020Z,19.25
2018-04-29T21:02:40.388Z,19.26
2018-04-29T21:05:09.504Z,19.26
2018-04-29T21:07:37.878Z,19.07
2018-04-29T21:10:06.294Z,19.00
2018-04-29T21:12:34.687Z,19.01
2018-04-29T21:15:03.105Z,19.02
2018-04-29T21:17:31.507Z,19.18
2018-04-29T21:20:00.605Z,19.30
2018-04-29T21:22:29.039Z,19.30
2018-04-29T21:24:58.181Z,18.96
2018-04-29T21:27:26.555Z,18.74
2018-04-29T21:29:54.887Z,18.83
2018-04-29T21:32:23.249Z,18.97
2018-04-29T21:34:51.556Z,18.77
2018-04-29T21:37:20.679Z,18.72
2018-04-29T21:39:49.009Z,18.93
2018-04-29T21:42:17.330Z,18.91
2018-04-29T21:44:45.707Z,18.97
2018-04-29T21:47:14.090Z,18.90
2018-04-29T21:49:42.403Z,19.02
2018-04-29T21:52:10.751Z,18.80
2018-04-29T21:54:39.126Z,18.74
2018-04-29T21:57:07.478Z,18.91
2018-04-29T21:59:35.832Z,18.80
2018-04-29T22:02:04.195Z,18.76
2018-04-29T22:04:32.541Z,18.72
2018-04-29T22:07:00.876Z,18.51
2018-04-29T22:09:30.012Z,18.52
2018-04-29T22:11:58.341Z,18.55
2018-04-29T22:14:26.701Z,18.60
2018-04-29T22:16:55.014Z,18.59
2018-04-29T22:19:23.361Z,18.52
2018-04-29T22:21:51.668Z,18.60
2018-04-29T22:24:20.797Z,18.56
2018-04-29T22:26:49.167Z,18.45
2018-04-29T22:29:17.545Z,18.24
2018-04-29T22:31:45.873Z,18.42
2018-04-29T22:34:14.213Z,18.30
2018-04-29T22:36:42.566Z,18.21
2018-04-29T22:39:10.936Z,18.21
2018-04-29T22:41:39.277Z,18.15
2018-04-29T22:44:07.657Z,18.26
2018-04-29T22:46:35.985Z,18.09
2018-04-29T22:49:04.325Z,17.96
2018-04-29T22:51:33.453Z,17.93
2018-04-29T22:54:01.825Z,18.07
2018-04-29T22:56:30.577Z,18.01
2018-04-29T22:58:58.961Z,18.07
2018-04-29T23:01:28.079Z,18.04
2018-04-29T23:03:57.242Z,17.98
2018-04-29T23:06:25.551Z,17.89
2018-04-29T23:08:54.695Z,17.98
2018-04-29T23:11:23.080Z,17.77
2018-04-29T23:13:51.432Z,17.79
2018-04-29T23:16:19.789Z,17.78
2018-04-29T23:18:48.168Z,17.93
2018-04-29T23:21:16.488Z,17.73
2018-04-29T23:23:44.828Z,17.69
2018-04-29T23:26:13.589Z,17.75
2018-04-29T23:28:42.760Z,17.74
2018-04-29T23:31:11.079Z,17.69
2018-04-29T23:33:39.400Z,17.73
2018-04-29T23:36:07.760Z,17.63
2018-04-29T23:38:36.080Z,17.57
2018-04-29T23:41:04.413Z,17.48
2018-04-29T23:43:32.784Z,17.54
2018-04-29T23:46:01.143Z,17.34
2018-04-29T23:48:29.532Z,17.38
2018-04-29T23:50:57.862Z,17.40
2018-04-29T23:53:26.208Z,17.56
2018-04-29T23:55:54.560Z,17.28
2018-04-29T23:58:22.902Z,17.35
